Impacts METAR Board
IDs:

KMCO - Orlando Intl, FL, US

Updated at: 2200 UTC 30 Jun 2022
Potential Impact None Slight Moderate High
Time 30/10Z 30/11Z 30/12Z 30/13Z 30/14Z 30/15Z 30/16Z 30/17Z 30/18Z 30/19Z 30/20Z 30/21Z 30/22Z
Temp76 77 79 83 85 86 88 88 92 94 86 81 81
Dewpt73 74 74 74 73 71 72 71 70 67 73 72 73
Altim30.12 30.12 30.13 30.13 30.14 30.14 30.13 30.11 30.10 30.07 30.08 30.09 30.08
VIS10 10 10 10 10 10 10 10 10 10 10 10 10
CIG-- -- -- -- -- -- -- -- 250 250 95 160 90
CoverSCTSCTSCTSCTSCTSCTSCTSCTBKNBKNBKNBKNBKN
FltCatVFRVFRVFRVFRVFRVFRVFRVFRVFRVFRVFRVFRVFR
WX------------------TSTSTS-RA
WDir00000022019000903050
WSpd0 0 0 0 0 0 4 3 4 3 14 6 8
WGst-- -- -- -- -- -- -- -- -- -- -- -- --
Raw hourly METARs
KMCO 300953Z 00000KT 10SM FEW010 FEW020 FEW130 SCT250 24/23 A3012 RMK AO2 SLP196 T02440228
KMCO 301053Z 00000KT 10SM FEW010 FEW025 SCT140 SCT250 25/23 A3012 RMK AO2 SLP199 CB DSNT E T02500233
KMCO 301153Z 00000KT 10SM FEW012 FEW140 SCT250 26/23 A3013 RMK AO2 SLP202 T02610233 10261 20244 53005
KMCO 301253Z 00000KT 10SM FEW018 SCT250 28/23 A3013 RMK AO2 SLP202 T02830233
KMCO 301353Z 00000KT 10SM SCT023 SCT250 29/23 A3014 RMK AO2 SLP205 T02940228
KMCO 301453Z 00000KT 10SM SCT027 SCT250 30/22 A3014 RMK AO2 SLP205 T03000217 52004
KMCO 301553Z 22004KT 10SM SCT032TCU SCT250 31/22 A3013 RMK AO2 SLP203 TCU S T03110222
KMCO 301653Z 19003KT 10SM SCT038TCU SCT100 SCT250 31/22 A3011 RMK AO2 SLP195 TCU NE T03110217
KMCO 301753Z VRB04KT 10SM SCT044 SCT110 BKN250 33/21 A3010 RMK AO2 LTG DSNT E SLP189 CB DSNT E STNRY T03330211 10333 20261 58016
KMCO 301853Z VRB03KT 10SM TS SCT050CB SCT110 BKN250 34/19 A3007 RMK AO2 LTG DSNT N-SE TSE30B36 SLP180 OCNL LTGCG NE-E TS NE-E STNRY VCSH N NE-E CB DSNT N T03440194
KMCO 301953Z 09014KT 10SM TS FEW025 SCT060CB BKN095 BKN250 30/23 A3008 RMK AO2 LTG DSNT NW-NE SLP184 CONS LTGICCG NW-NE TS NW-NE MOV SW TCU OHD SW VCSH NW-NE T03000228
KMCO 302053Z 03006KT 10SM TS FEW070CB SCT100 BKN160 BKN250 27/22 A3009 RMK AO2 WSHFT 1954 LTG DSNT N-SE SLP187 OCNL LTGICCG OHD W-N TS OHD W-N MOV SW VCSH W-E T02720222 55003
KMCO 302153Z 05008KT 10SM -RA SCT050 BKN090 BKN116 BKN250 27/23 A3008 RMK AO2 LTG DSNT NE AND S RAB29 TSE11 SLP184 P0000 T02720228



Page loaded:  22:30 UTC  |   03:30 PM Pacific  |   04:30 PM Mountain  |   05:30 PM Central  |   06:30 PM Eastern

 

ADVISORIES

FORECASTS

FORECASTS

OBSERVATIONS

USER TOOLS

ABOUT US